Hertfordshire — ZDJS5 — position and weather

sailwx.info

Track history (hours):
 
Tides and Currents Weather Stations Pressure Air Temp Water Temp Dewpoint Dewpoint Depression Visibility Wind Speed Wind Dir Waves Ship Positions

Hertfordshire

Last reported at 2014-Aug-25 14:28 UTC. Time now 2014-Aug-31 10:35 UTC.
Position N 50°35' E 000°13'.

Length 83 m; draft 4.6 m.

Type: Cargo ship. MMSI: 236563000.

Date/timePositionNaut miles runAvg speedWind from/ knotsBaromVisibWave heightAir tempDewpointWater temp
2014-Aug-25 14:28N 50°35' E 000°13'8 9.3
2014-Aug-25 13:34N 50°37' E 000°25'8 8.4
2014-Aug-25 12:33N 50°40' E 000°38'8 7.8
2014-Aug-25 11:34N 50°45' E 000°48'27 8.5
2014-Aug-25 08:26N 51°01' E 001°21'1112.6
2014-Aug-25 07:34N 51°08' E 001°35'1211.8
2014-Aug-25 06:33N 51°20' E 001°35'1110.5
2014-Aug-25 05:34N 51°28' E 001°24'1111.3
2014-Aug-25 04:33N 51°29' E 001°06'1110.9
2014-Aug-25 03:33N 51°29' E 000°48'1312.6
2014-Aug-25 02:34N 51°29' E 000°28'9 8.6
2014-Aug-25 01:33N 51°28' E 000°14'3 2.7
2014-Aug-25 00:31N 51°30' E 000°10'0 0.0
2014-Aug-24 23:31N 51°30' E 000°10'0 0.0
2014-Aug-24 22:31N 51°30' E 000°10'0 0.0
2014-Aug-24 21:31N 51°30' E 000°10'0 0.0
2014-Aug-24 20:31N 51°30' E 000°10'0 0.0
2014-Aug-24 19:28N 51°30' E 000°10'0 0.0
2014-Aug-24 18:25N 51°30' E 000°10'0 0.0
2014-Aug-24 17:31N 51°30' E 000°10'0 0.0
2014-Aug-24 16:31N 51°30' E 000°10'0 0.0
2014-Aug-24 15:31N 51°30' E 000°10'0 0.0
2014-Aug-24 14:31N 51°30' E 000°10'0 0.0
2014-Aug-24 13:28N 51°30' E 000°10'0 0.0
2014-Aug-24 12:31N 51°30' E 000°10'0 0.0
2014-Aug-24 11:31N 51°30' E 000°10'0 0.0
2014-Aug-24 10:31N 51°30' E 000°10'0 0.0
2014-Aug-24 09:31N 51°30' E 000°10'0 0.0
2014-Aug-24 08:31N 51°30' E 000°10'0 0.0
2014-Aug-24 07:31N 51°30' E 000°10'0 0.0
2014-Aug-24 06:31N 51°30' E 000°10'0 0.0
2014-Aug-24 05:31N 51°30' E 000°10'0 0.0
2014-Aug-24 04:28N 51°30' E 000°10'0 0.0
2014-Aug-24 03:31N 51°30' E 000°10'0 0.0
2014-Aug-24 02:31N 51°30' E 000°10'0 0.0
2014-Aug-24 01:31N 51°30' E 000°10'0 0.0
2014-Aug-24 00:28N 51°30' E 000°10'0 0.0
2014-Aug-23 23:31N 51°30' E 000°10'0 0.0
2014-Aug-23 22:31N 51°30' E 000°10'0 0.0
2014-Aug-23 21:31N 51°30' E 000°10'0 0.0
2014-Aug-23 20:31N 51°30' E 000°10'0 0.0
2014-Aug-23 19:31N 51°30' E 000°10'30 1.9
2014-Aug-23 03:32N 51°30' E 000°58'0 0.0
2014-Aug-23 02:29N 51°30' E 000°58'0 0.0
2014-Aug-23 01:32N 51°30' E 000°58'0 0.0
2014-Aug-23 00:32N 51°30' E 000°58'0 0.0
2014-Aug-22 23:29N 51°30' E 000°58'0 0.1
2014-Aug-22 22:32N 51°30' E 000°58'0 0.0
2014-Aug-22 21:32N 51°30' E 000°58'0 0.0
2014-Aug-22 20:32N 51°30' E 000°58'0 0.0
2014-Aug-22 19:32N 51°30' E 000°58'0 0.0
2014-Aug-22 18:32N 51°30' E 000°58'0 0.1
2014-Aug-22 17:32N 51°30' E 000°58'0 0.0
2014-Aug-22 16:29N 51°30' E 000°58'0 0.0
2014-Aug-22 15:32N 51°30' E 000°58'0 0.0
2014-Aug-22 14:32N 51°30' E 000°58'0 0.0
2014-Aug-22 13:32N 51°30' E 000°58'0 0.0
2014-Aug-22 12:32N 51°30' E 000°58'0 0.0
2014-Aug-22 11:32N 51°30' E 000°58'0 0.0
2014-Aug-22 10:32N 51°30' E 000°58'0 0.1
2014-Aug-22 09:32N 51°30' E 000°58'0 0.0
2014-Aug-22 08:32N 51°30' E 000°58'0 0.0
2014-Aug-22 07:32N 51°30' E 000°58'0 0.0
2014-Aug-22 06:32N 51°30' E 000°58'0 0.1
2014-Aug-22 05:32N 51°30' E 000°58'0 0.0
2014-Aug-22 04:32N 51°30' E 000°58'0 0.0
2014-Aug-22 03:32N 51°30' E 000°58'0 0.0
2014-Aug-22 02:32N 51°30' E 000°58'0 0.0
2014-Aug-22 01:32N 51°30' E 000°58'0 0.0
2014-Aug-22 00:32N 51°30' E 000°58'0 0.0
2014-Aug-21 23:32N 51°30' E 000°58'0 0.0
2014-Aug-21 22:29N 51°30' E 000°58'0 0.0
2014-Aug-21 21:29N 51°30' E 000°58'0 0.1
2014-Aug-21 20:32N 51°30' E 000°58'0 0.0
2014-Aug-21 19:32N 51°30' E 000°58'0 0.0
2014-Aug-21 18:32N 51°30' E 000°58'0 0.1
2014-Aug-21 17:32N 51°30' E 000°58'0 0.1
2014-Aug-21 16:32N 51°30' E 000°58'0 0.0
2014-Aug-21 15:32N 51°30' E 000°58'0 0.0
2014-Aug-21 14:32N 51°30' E 000°58'0 0.0
2014-Aug-21 13:32N 51°30' E 000°58'0 0.0
2014-Aug-21 12:33N 51°30' E 000°58'6 5.7
2014-Aug-21 11:32N 51°30' E 001°07'9 9.1
2014-Aug-21 10:33N 51°29' E 001°21'10 9.9
2014-Aug-21 09:34N 51°33' E 001°36'1010.3
2014-Aug-21 08:33N 51°38' E 001°51'9510.3
2014-Aug-20 23:22N 52°31' E 003°58'8 9.6
2014-Aug-20 22:33N 52°31' E 004°11'10 9.9
2014-Aug-20 21:33N 52°29' E 004°27'6 6.1
2014-Aug-20 20:33N 52°28' E 004°37'8 7.6
2014-Aug-20 19:34N 52°25' E 004°48'2 2.5
2014-Aug-20 18:33N 52°25' E 004°52'0 0.0
2014-Aug-20 17:33N 52°25' E 004°52'0 0.0
2014-Aug-20 16:30N 52°25' E 004°52'0 0.0
2014-Aug-20 15:30N 52°25' E 004°52'0 0.0
2014-Aug-20 14:30N 52°25' E 004°52'0 0.0
2014-Aug-20 13:31N 52°25' E 004°52'0 0.0
2014-Aug-20 12:31N 52°25' E 004°52'0 0.0
2014-Aug-20 11:31N 52°25' E 004°52'0 0.0
2014-Aug-20 10:31N 52°25' E 004°52'0 0.0
2014-Aug-20 09:31N 52°25' E 004°52'0 0.0
2014-Aug-20 08:31N 52°25' E 004°52'0 0.0
2014-Aug-20 07:32N 52°25' E 004°52'0 0.0
2014-Aug-20 06:32N 52°25' E 004°52'0 0.0
2014-Aug-20 05:32N 52°25' E 004°52'0 0.0
2014-Aug-20 04:32N 52°25' E 004°52'0 0.0
2014-Aug-20 03:32N 52°25' E 004°52'0 0.0
2014-Aug-20 02:32N 52°25' E 004°52'0 0.0
2014-Aug-20 01:32N 52°25' E 004°52'0 0.0
2014-Aug-20 00:32N 52°25' E 004°52'0 0.0
2014-Aug-19 23:33N 52°25' E 004°52'0 0.0
2014-Aug-19 22:34N 52°25' E 004°52'0 0.0
2014-Aug-19 21:33N 52°25' E 004°52'0 0.0
2014-Aug-19 20:33N 52°25' E 004°52'6 5.6
2014-Aug-19 19:33N 52°26' E 004°43'5 4.6
2014-Aug-19 18:34N 52°28' E 004°36'2 1.8
2014-Aug-19 17:33N 52°28' E 004°33'6 6.2
2014-Aug-19 16:33N 52°28' E 004°23'1 0.5
2014-Aug-19 15:33N 52°28' E 004°23'8 7.8
2014-Aug-19 14:33N 52°29' E 004°10'67 9.5
2014-Aug-19 07:29N 52°36' E 002°21'9 9.7
2014-Aug-19 06:33N 52°38' E 002°06'8 8.3
2014-Aug-19 05:34N 52°42' E 001°54'9 8.9
2014-Aug-19 04:34N 52°48' E 001°43'1010.5
2014-Aug-19 03:33N 52°54' E 001°29'1110.7
2014-Aug-19 02:33N 52°60' E 001°14'3610.4
2014-Aug-18 23:07N 53°28' E 000°35'611.0
2014-Aug-18 22:34N 53°33' E 000°32'1010.3
2014-Aug-18 21:34N 53°43' E 000°24'1110.3
2014-Aug-18 20:32N 53°52' E 000°16'10 9.8
2014-Aug-18 19:34N 54°00' E 000°08'9 9.3
2014-Aug-18 18:34N 54°08' E 000°00'9 8.8
2014-Aug-18 17:33N 54°15' W 000°10'9 8.6
2014-Aug-18 16:34N 54°21' W 000°19'8 8.4
2014-Aug-18 15:34N 54°28' W 000°29'8 8.2
2014-Aug-18 14:31N 54°33' W 000°41'8 8.6
2014-Aug-18 13:33N 54°36' W 000°53'9 8.7
2014-Aug-18 12:32N 54°40' W 001°08'2 0.1
2014-Aug-17 07:30N 54°38' W 001°10'8 8.8
2014-Aug-17 06:33N 54°46' W 001°07'9 9.4
2014-Aug-17 05:33N 54°55' W 001°11'64 9.1
2014-Aug-16 22:28N 55°53' W 002°01'910.2
2014-Aug-16 21:33N 55°58' W 002°15'1110.5
2014-Aug-16 20:33N 56°03' W 002°31'1010.3
2014-Aug-16 19:33N 56°06' W 002°49'1010.0
2014-Aug-16 18:33N 56°06' W 003°07'2 1.3
2014-Aug-16 17:21N 56°07' W 003°09'0 0.0
2014-Aug-16 16:25N 56°07' W 003°09'0 0.0
2014-Aug-16 15:28N 56°07' W 003°09'0 0.0
2014-Aug-16 14:31N 56°07' W 003°09'0 0.0
2014-Aug-16 13:31N 56°07' W 003°09'0 0.0
2014-Aug-16 12:31N 56°07' W 003°09'0 0.0
2014-Aug-16 11:31N 56°07' W 003°09'0 0.0
2014-Aug-16 10:31N 56°07' W 003°09'0 0.0
2014-Aug-16 09:31N 56°07' W 003°09'0 0.0
2014-Aug-16 08:31N 56°07' W 003°09'0 0.0
2014-Aug-16 07:22N 56°07' W 003°09'0 0.0
2014-Aug-16 06:25N 56°07' W 003°09'0 0.0
2014-Aug-16 05:25N 56°07' W 003°09'0 0.0
2014-Aug-16 04:25N 56°07' W 003°09'0 0.0
2014-Aug-16 03:28N 56°07' W 003°09'0 0.0
2014-Aug-16 02:28N 56°07' W 003°09'0 0.0
2014-Aug-16 01:31N 56°07' W 003°09'0 0.0
2014-Aug-16 00:28N 56°07' W 003°09'0 0.0
2014-Aug-15 23:31N 56°07' W 003°09'0 0.0
2014-Aug-15 22:31N 56°07' W 003°09'0 0.0
2014-Aug-15 21:33N 56°07' W 003°09'0 0.0
2014-Aug-15 20:33N 56°07' W 003°09'0 0.0
2014-Aug-15 19:33N 56°07' W 003°09'0 0.0
2014-Aug-15 18:33N 56°07' W 003°09'0 0.0
2014-Aug-15 17:33N 56°07' W 003°09'0 0.0
2014-Aug-15 16:33N 56°07' W 003°09'0 0.0
2014-Aug-15 15:33N 56°07' W 003°09'  
Track history (hours):
 
Tides and Currents Weather Stations Pressure Air Temp Water Temp Dewpoint Dewpoint Depression Visibility Wind Speed Wind Dir Waves Ship Positions

Hertfordshire

Last reported at 2014-Aug-25 14:28 UTC. Time now 2014-Aug-31 10:35 UTC.
Position N 50°35' E 000°13'.

Length 83 m; draft 4.6 m.

Type: Cargo ship. MMSI: 236563000.

Date/timePositionNaut miles runAvg speedWind from/ knotsBaromVisibWave heightAir tempDewpointWater temp
2014-Aug-25 14:28N 50°35' E 000°13'8 9.3
2014-Aug-25 13:34N 50°37' E 000°25'8 8.4
2014-Aug-25 12:33N 50°40' E 000°38'8 7.8
2014-Aug-25 11:34N 50°45' E 000°48'27 8.5
2014-Aug-25 08:26N 51°01' E 001°21'1112.6
2014-Aug-25 07:34N 51°08' E 001°35'1211.8
2014-Aug-25 06:33N 51°20' E 001°35'1110.5
2014-Aug-25 05:34N 51°28' E 001°24'1111.3
2014-Aug-25 04:33N 51°29' E 001°06'1110.9
2014-Aug-25 03:33N 51°29' E 000°48'1312.6
2014-Aug-25 02:34N 51°29' E 000°28'9 8.6
2014-Aug-25 01:33N 51°28' E 000°14'3 2.7
2014-Aug-25 00:31N 51°30' E 000°10'0 0.0
2014-Aug-24 23:31N 51°30' E 000°10'0 0.0
2014-Aug-24 22:31N 51°30' E 000°10'0 0.0
2014-Aug-24 21:31N 51°30' E 000°10'0 0.0
2014-Aug-24 20:31N 51°30' E 000°10'0 0.0
2014-Aug-24 19:28N 51°30' E 000°10'0 0.0
2014-Aug-24 18:25N 51°30' E 000°10'0 0.0
2014-Aug-24 17:31N 51°30' E 000°10'0 0.0
2014-Aug-24 16:31N 51°30' E 000°10'0 0.0
2014-Aug-24 15:31N 51°30' E 000°10'0 0.0
2014-Aug-24 14:31N 51°30' E 000°10'0 0.0
2014-Aug-24 13:28N 51°30' E 000°10'0 0.0
2014-Aug-24 12:31N 51°30' E 000°10'0 0.0
2014-Aug-24 11:31N 51°30' E 000°10'0 0.0
2014-Aug-24 10:31N 51°30' E 000°10'0 0.0
2014-Aug-24 09:31N 51°30' E 000°10'0 0.0
2014-Aug-24 08:31N 51°30' E 000°10'0 0.0
2014-Aug-24 07:31N 51°30' E 000°10'0 0.0
2014-Aug-24 06:31N 51°30' E 000°10'0 0.0
2014-Aug-24 05:31N 51°30' E 000°10'0 0.0
2014-Aug-24 04:28N 51°30' E 000°10'0 0.0
2014-Aug-24 03:31N 51°30' E 000°10'0 0.0
2014-Aug-24 02:31N 51°30' E 000°10'0 0.0
2014-Aug-24 01:31N 51°30' E 000°10'0 0.0
2014-Aug-24 00:28N 51°30' E 000°10'0 0.0
2014-Aug-23 23:31N 51°30' E 000°10'0 0.0
2014-Aug-23 22:31N 51°30' E 000°10'0 0.0
2014-Aug-23 21:31N 51°30' E 000°10'0 0.0
2014-Aug-23 20:31N 51°30' E 000°10'0 0.0
2014-Aug-23 19:31N 51°30' E 000°10'30 1.9
2014-Aug-23 03:32N 51°30' E 000°58'0 0.0
2014-Aug-23 02:29N 51°30' E 000°58'0 0.0
2014-Aug-23 01:32N 51°30' E 000°58'0 0.0
2014-Aug-23 00:32N 51°30' E 000°58'0 0.0
2014-Aug-22 23:29N 51°30' E 000°58'0 0.1
2014-Aug-22 22:32N 51°30' E 000°58'0 0.0
2014-Aug-22 21:32N 51°30' E 000°58'0 0.0
2014-Aug-22 20:32N 51°30' E 000°58'0 0.0
2014-Aug-22 19:32N 51°30' E 000°58'0 0.0
2014-Aug-22 18:32N 51°30' E 000°58'0 0.1
2014-Aug-22 17:32N 51°30' E 000°58'0 0.0
2014-Aug-22 16:29N 51°30' E 000°58'0 0.0
2014-Aug-22 15:32N 51°30' E 000°58'0 0.0
2014-Aug-22 14:32N 51°30' E 000°58'0 0.0
2014-Aug-22 13:32N 51°30' E 000°58'0 0.0
2014-Aug-22 12:32N 51°30' E 000°58'0 0.0
2014-Aug-22 11:32N 51°30' E 000°58'0 0.0
2014-Aug-22 10:32N 51°30' E 000°58'0 0.1
2014-Aug-22 09:32N 51°30' E 000°58'0 0.0
2014-Aug-22 08:32N 51°30' E 000°58'0 0.0
2014-Aug-22 07:32N 51°30' E 000°58'0 0.0
2014-Aug-22 06:32N 51°30' E 000°58'0 0.1
2014-Aug-22 05:32N 51°30' E 000°58'0 0.0
2014-Aug-22 04:32N 51°30' E 000°58'0 0.0
2014-Aug-22 03:32N 51°30' E 000°58'0 0.0
2014-Aug-22 02:32N 51°30' E 000°58'0 0.0
2014-Aug-22 01:32N 51°30' E 000°58'0 0.0
2014-Aug-22 00:32N 51°30' E 000°58'0 0.0
2014-Aug-21 23:32N 51°30' E 000°58'0 0.0
2014-Aug-21 22:29N 51°30' E 000°58'0 0.0
2014-Aug-21 21:29N 51°30' E 000°58'0 0.1
2014-Aug-21 20:32N 51°30' E 000°58'0 0.0
2014-Aug-21 19:32N 51°30' E 000°58'0 0.0
2014-Aug-21 18:32N 51°30' E 000°58'0 0.1
2014-Aug-21 17:32N 51°30' E 000°58'0 0.1
2014-Aug-21 16:32N 51°30' E 000°58'0 0.0
2014-Aug-21 15:32N 51°30' E 000°58'0 0.0
2014-Aug-21 14:32N 51°30' E 000°58'0 0.0
2014-Aug-21 13:32N 51°30' E 000°58'0 0.0
2014-Aug-21 12:33N 51°30' E 000°58'6 5.7
2014-Aug-21 11:32N 51°30' E 001°07'9 9.1
2014-Aug-21 10:33N 51°29' E 001°21'10 9.9
2014-Aug-21 09:34N 51°33' E 001°36'1010.3
2014-Aug-21 08:33N 51°38' E 001°51'9510.3
2014-Aug-20 23:22N 52°31' E 003°58'8 9.6
2014-Aug-20 22:33N 52°31' E 004°11'10 9.9
2014-Aug-20 21:33N 52°29' E 004°27'6 6.1
2014-Aug-20 20:33N 52°28' E 004°37'8 7.6
2014-Aug-20 19:34N 52°25' E 004°48'2 2.5
2014-Aug-20 18:33N 52°25' E 004°52'0 0.0
2014-Aug-20 17:33N 52°25' E 004°52'0 0.0
2014-Aug-20 16:30N 52°25' E 004°52'0 0.0
2014-Aug-20 15:30N 52°25' E 004°52'0 0.0
2014-Aug-20 14:30N 52°25' E 004°52'0 0.0
2014-Aug-20 13:31N 52°25' E 004°52'0 0.0
2014-Aug-20 12:31N 52°25' E 004°52'0 0.0
2014-Aug-20 11:31N 52°25' E 004°52'0 0.0
2014-Aug-20 10:31N 52°25' E 004°52'0 0.0
2014-Aug-20 09:31N 52°25' E 004°52'0 0.0
2014-Aug-20 08:31N 52°25' E 004°52'0 0.0
2014-Aug-20 07:32N 52°25' E 004°52'0 0.0
2014-Aug-20 06:32N 52°25' E 004°52'0 0.0
2014-Aug-20 05:32N 52°25' E 004°52'0 0.0
2014-Aug-20 04:32N 52°25' E 004°52'0 0.0
2014-Aug-20 03:32N 52°25' E 004°52'0 0.0
2014-Aug-20 02:32N 52°25' E 004°52'0 0.0
2014-Aug-20 01:32N 52°25' E 004°52'0 0.0
2014-Aug-20 00:32N 52°25' E 004°52'0 0.0
2014-Aug-19 23:33N 52°25' E 004°52'0 0.0
2014-Aug-19 22:34N 52°25' E 004°52'0 0.0
2014-Aug-19 21:33N 52°25' E 004°52'0 0.0
2014-Aug-19 20:33N 52°25' E 004°52'6 5.6
2014-Aug-19 19:33N 52°26' E 004°43'5 4.6
2014-Aug-19 18:34N 52°28' E 004°36'2 1.8
2014-Aug-19 17:33N 52°28' E 004°33'6 6.2
2014-Aug-19 16:33N 52°28' E 004°23'1 0.5
2014-Aug-19 15:33N 52°28' E 004°23'8 7.8
2014-Aug-19 14:33N 52°29' E 004°10'67 9.5
2014-Aug-19 07:29N 52°36' E 002°21'9 9.7
2014-Aug-19 06:33N 52°38' E 002°06'8 8.3
2014-Aug-19 05:34N 52°42' E 001°54'9 8.9
2014-Aug-19 04:34N 52°48' E 001°43'1010.5
2014-Aug-19 03:33N 52°54' E 001°29'1110.7
2014-Aug-19 02:33N 52°60' E 001°14'3610.4
2014-Aug-18 23:07N 53°28' E 000°35'611.0
2014-Aug-18 22:34N 53°33' E 000°32'1010.3
2014-Aug-18 21:34N 53°43' E 000°24'1110.3
2014-Aug-18 20:32N 53°52' E 000°16'10 9.8
2014-Aug-18 19:34N 54°00' E 000°08'9 9.3
2014-Aug-18 18:34N 54°08' E 000°00'9 8.8
2014-Aug-18 17:33N 54°15' W 000°10'9 8.6
2014-Aug-18 16:34N 54°21' W 000°19'8 8.4
2014-Aug-18 15:34N 54°28' W 000°29'8 8.2
2014-Aug-18 14:31N 54°33' W 000°41'8 8.6
2014-Aug-18 13:33N 54°36' W 000°53'9 8.7
2014-Aug-18 12:32N 54°40' W 001°08'2 0.1
2014-Aug-17 07:30N 54°38' W 001°10'8 8.8
2014-Aug-17 06:33N 54°46' W 001°07'9 9.4
2014-Aug-17 05:33N 54°55' W 001°11'64 9.1
2014-Aug-16 22:28N 55°53' W 002°01'910.2
2014-Aug-16 21:33N 55°58' W 002°15'1110.5
2014-Aug-16 20:33N 56°03' W 002°31'1010.3
2014-Aug-16 19:33N 56°06' W 002°49'1010.0
2014-Aug-16 18:33N 56°06' W 003°07'2 1.3
2014-Aug-16 17:21N 56°07' W 003°09'0 0.0
2014-Aug-16 16:25N 56°07' W 003°09'0 0.0
2014-Aug-16 15:28N 56°07' W 003°09'0 0.0
2014-Aug-16 14:31N 56°07' W 003°09'0 0.0
2014-Aug-16 13:31N 56°07' W 003°09'0 0.0
2014-Aug-16 12:31N 56°07' W 003°09'0 0.0
2014-Aug-16 11:31N 56°07' W 003°09'0 0.0
2014-Aug-16 10:31N 56°07' W 003°09'0 0.0
2014-Aug-16 09:31N 56°07' W 003°09'0 0.0
2014-Aug-16 08:31N 56°07' W 003°09'0 0.0
2014-Aug-16 07:22N 56°07' W 003°09'0 0.0
2014-Aug-16 06:25N 56°07' W 003°09'0 0.0
2014-Aug-16 05:25N 56°07' W 003°09'0 0.0
2014-Aug-16 04:25N 56°07' W 003°09'0 0.0
2014-Aug-16 03:28N 56°07' W 003°09'0 0.0
2014-Aug-16 02:28N 56°07' W 003°09'0 0.0
2014-Aug-16 01:31N 56°07' W 003°09'0 0.0
2014-Aug-16 00:28N 56°07' W 003°09'0 0.0
2014-Aug-15 23:31N 56°07' W 003°09'0 0.0
2014-Aug-15 22:31N 56°07' W 003°09'0 0.0
2014-Aug-15 21:33N 56°07' W 003°09'0 0.0
2014-Aug-15 20:33N 56°07' W 003°09'0 0.0
2014-Aug-15 19:33N 56°07' W 003°09'0 0.0
2014-Aug-15 18:33N 56°07' W 003°09'0 0.0
2014-Aug-15 17:33N 56°07' W 003°09'0 0.0
2014-Aug-15 16:33N 56°07' W 003°09'0 0.0
2014-Aug-15 15:33N 56°07' W 003°09'  

Dump ship's entire track history